sensor_id;sensor_type;location;lat;lon;timestamp;pressure;altitude;pressure_sealevel;temperature;humidity
13612;BME280;6877;51.436;6.774;2022-08-19T00:01:49;100939.91;;;18.39;75.36
13612;BME280;6877;51.436;6.774;2022-08-19T00:04:25;100947.91;;;18.37;75.56
13612;BME280;6877;51.436;6.774;2022-08-19T00:06:57;100943.63;;;18.35;75.45
13612;BME280;6877;51.436;6.774;2022-08-19T00:09:29;100956.94;;;18.33;75.86
13612;BME280;6877;51.436;6.774;2022-08-19T00:11:57;100952.66;;;18.30;75.94
13612;BME280;6877;51.436;6.774;2022-08-19T00:14:29;100952.66;;;18.30;76.66
13612;BME280;6877;51.436;6.774;2022-08-19T00:16:57;100954.53;;;18.28;76.48
13612;BME280;6877;51.436;6.774;2022-08-19T00:19:29;100958.19;;;18.26;75.91
13612;BME280;6877;51.436;6.774;2022-08-19T00:21:56;100960.13;;;18.22;76.86
13612;BME280;6877;51.436;6.774;2022-08-19T00:24:22;100955.72;;;18.21;77.00
13612;BME280;6877;51.436;6.774;2022-08-19T00:26:48;100954.97;;;18.19;77.25
13612;BME280;6877;51.436;6.774;2022-08-19T00:29:22;100952.47;;;18.16;76.90
13612;BME280;6877;51.436;6.774;2022-08-19T00:31:54;100954.41;;;18.13;76.55
13612;BME280;6877;51.436;6.774;2022-08-19T00:34:27;100950.09;;;18.10;76.76
13612;BME280;6877;51.436;6.774;2022-08-19T00:36:55;100947.50;;;18.09;76.35
13612;BME280;6877;51.436;6.774;2022-08-19T00:39:26;100947.59;;;18.07;77.04
13612;BME280;6877;51.436;6.774;2022-08-19T00:41:58;100947.66;;;18.05;77.00
13612;BME280;6877;51.436;6.774;2022-08-19T00:44:29;100945.09;;;18.04;76.90
13612;BME280;6877;51.436;6.774;2022-08-19T00:46:58;100939.94;;;18.01;77.11
13612;BME280;6877;51.436;6.774;2022-08-19T00:49:49;100936.47;;;17.99;77.20
13612;BME280;6877;51.436;6.774;2022-08-19T00:52:31;100948.00;;;17.98;77.46
13612;BME280;6877;51.436;6.774;2022-08-19T00:55:07;100942.84;;;17.95;77.34
13612;BME280;6877;51.436;6.774;2022-08-19T00:57:44;100941.19;;;17.92;77.14
13612;BME280;6877;51.436;6.774;2022-08-19T01:00:19;100945.66;;;17.92;78.17
13612;BME280;6877;51.436;6.774;2022-08-19T01:02:52;100944.94;;;17.88;78.11
13612;BME280;6877;51.436;6.774;2022-08-19T01:05:26;100936.19;;;17.86;77.67
13612;BME280;6877;51.436;6.774;2022-08-19T01:08:02;100943.28;;;17.86;78.02
13612;BME280;6877;51.436;6.774;2022-08-19T01:10:43;100946.06;;;17.82;78.03
13612;BME280;6877;51.436;6.774;2022-08-19T01:13:19;100940.91;;;17.79;77.86
13612;BME280;6877;51.436;6.774;2022-08-19T01:15:50;100945.41;;;17.77;78.01
13612;BME280;6877;51.436;6.774;2022-08-19T01:18:24;100944.59;;;17.75;78.11
13612;BME280;6877;51.436;6.774;2022-08-19T01:21:01;100941.16;;;17.73;78.45
13612;BME280;6877;51.436;6.774;2022-08-19T01:23:34;100943.94;;;17.70;78.46
13612;BME280;6877;51.436;6.774;2022-08-19T01:26:17;100951.03;;;17.70;78.54
13612;BME280;6877;51.436;6.774;2022-08-19T01:28:53;100947.53;;;17.69;78.39
13612;BME280;6877;51.436;6.774;2022-08-19T01:31:27;100945.00;;;17.66;78.45
13612;BME280;6877;51.436;6.774;2022-08-19T01:34:02;100943.94;;;17.70;78.89
13612;BME280;6877;51.436;6.774;2022-08-19T01:36:41;100943.75;;;17.75;79.06
13612;BME280;6877;51.436;6.774;2022-08-19T01:39:23;100941.75;;;17.80;79.01
13612;BME280;6877;51.436;6.774;2022-08-19T01:41:54;100929.53;;;17.77;78.59
13612;BME280;6877;51.436;6.774;2022-08-19T01:44:26;100945.44;;;17.76;78.54
13612;BME280;6877;51.436;6.774;2022-08-19T01:46:52;100939.19;;;17.78;78.96
13612;BME280;6877;51.436;6.774;2022-08-19T01:49:25;100947.78;;;17.83;79.54
13612;BME280;6877;51.436;6.774;2022-08-19T01:51:59;100941.47;;;17.86;79.34
13612;BME280;6877;51.436;6.774;2022-08-19T01:54:31;100945.91;;;17.86;79.44
13612;BME280;6877;51.436;6.774;2022-08-19T01:57:07;100947.91;;;17.80;79.33
13612;BME280;6877;51.436;6.774;2022-08-19T01:59:41;100942.81;;;17.76;79.25
13612;BME280;6877;51.436;6.774;2022-08-19T02:02:14;100936.13;;;17.67;79.29
13612;BME280;6877;51.436;6.774;2022-08-19T02:04:45;100945.28;;;17.60;79.81
13612;BME280;6877;51.436;6.774;2022-08-19T02:07:21;100941.06;;;17.56;79.87
13612;BME280;6877;51.436;6.774;2022-08-19T02:09:53;100935.78;;;17.56;80.55
13612;BME280;6877;51.436;6.774;2022-08-19T02:12:21;100940.13;;;17.57;80.22
13612;BME280;6877;51.436;6.774;2022-08-19T02:14:47;100931.53;;;17.52;80.12
13612;BME280;6877;51.436;6.774;2022-08-19T02:17:14;100928.25;;;17.47;80.46
13612;BME280;6877;51.436;6.774;2022-08-19T02:19:45;100933.81;;;17.41;80.51
13612;BME280;6877;51.436;6.774;2022-08-19T02:22:17;100933.13;;;17.35;80.62
13612;BME280;6877;51.436;6.774;2022-08-19T02:24:48;100934.19;;;17.31;80.93
13612;BME280;6877;51.436;6.774;2022-08-19T02:27:21;100939.63;;;17.28;80.66
13612;BME280;6877;51.436;6.774;2022-08-19T02:29:53;100938.94;;;17.23;80.85
13612;BME280;6877;51.436;6.774;2022-08-19T02:32:25;100947.00;;;17.20;81.46
13612;BME280;6877;51.436;6.774;2022-08-19T02:34:56;100952.44;;;17.17;81.29
13612;BME280;6877;51.436;6.774;2022-08-19T02:37:28;100958.72;;;17.14;81.38
13612;BME280;6877;51.436;6.774;2022-08-19T02:40:18;100958.78;;;17.13;81.50
13612;BME280;6877;51.436;6.774;2022-08-19T02:42:45;100954.44;;;17.12;81.61
13612;BME280;6877;51.436;6.774;2022-08-19T02:45:17;100947.41;;;17.11;81.57
13612;BME280;6877;51.436;6.774;2022-08-19T02:47:48;100946.56;;;17.10;81.96
13612;BME280;6877;51.436;6.774;2022-08-19T02:50:19;100948.25;;;17.11;82.14
13612;BME280;6877;51.436;6.774;2022-08-19T02:52:51;100952.69;;;17.11;82.60
13612;BME280;6877;51.436;6.774;2022-08-19T02:55:23;100950.13;;;17.09;82.22
13612;BME280;6877;51.436;6.774;2022-08-19T02:57:54;100957.13;;;17.10;82.23
13612;BME280;6877;51.436;6.774;2022-08-19T03:00:27;100957.97;;;17.11;82.57
13612;BME280;6877;51.436;6.774;2022-08-19T03:02:58;100951.78;;;17.12;82.18
13612;BME280;6877;51.436;6.774;2022-08-19T03:05:31;100952.81;;;17.08;82.34
13612;BME280;6877;51.436;6.774;2022-08-19T03:08:03;100946.69;;;17.07;82.19
13612;BME280;6877;51.436;6.774;2022-08-19T03:10:40;100959.84;;;17.09;82.42
13612;BME280;6877;51.436;6.774;2022-08-19T03:13:17;100957.22;;;17.09;82.33
13612;BME280;6877;51.436;6.774;2022-08-19T03:15:46;100955.47;;;17.08;82.30
13612;BME280;6877;51.436;6.774;2022-08-19T03:18:18;100953.81;;;17.05;82.37
13612;BME280;6877;51.436;6.774;2022-08-19T03:20:51;100945.09;;;17.03;82.25
13612;BME280;6877;51.436;6.774;2022-08-19T03:23:25;100944.28;;;17.01;82.39
13612;BME280;6877;51.436;6.774;2022-08-19T03:25:57;100941.59;;;17.03;82.46
13612;BME280;6877;51.436;6.774;2022-08-19T03:28:28;100944.13;;;17.06;82.58
13612;BME280;6877;51.436;6.774;2022-08-19T03:30:58;100940.41;;;17.10;82.65
13612;BME280;6877;51.436;6.774;2022-08-19T03:33:32;100949.16;;;17.12;82.29
13612;BME280;6877;51.436;6.774;2022-08-19T03:36:08;100952.44;;;17.17;82.47
13612;BME280;6877;51.436;6.774;2022-08-19T03:38:43;100958.44;;;17.21;82.42
13612;BME280;6877;51.436;6.774;2022-08-19T03:41:18;100948.72;;;17.21;82.24
13612;BME280;6877;51.436;6.774;2022-08-19T03:43:52;100948.72;;;17.21;82.20
13612;BME280;6877;51.436;6.774;2022-08-19T03:46:21;100948.88;;;17.18;82.61
13612;BME280;6877;51.436;6.774;2022-08-19T03:48:57;100952.44;;;17.17;82.64
13612;BME280;6877;51.436;6.774;2022-08-19T03:51:34;100956.94;;;17.15;82.77
13612;BME280;6877;51.436;6.774;2022-08-19T03:54:09;100960.44;;;17.16;83.30
13612;BME280;6877;51.436;6.774;2022-08-19T03:56:42;100954.31;;;17.15;83.42
13612;BME280;6877;51.436;6.774;2022-08-19T03:59:26;100949.16;;;17.12;83.38
13612;BME280;6877;51.436;6.774;2022-08-19T04:02:01;100954.56;;;17.09;83.43
13612;BME280;6877;51.436;6.774;2022-08-19T04:04:32;100952.81;;;17.08;83.74
13612;BME280;6877;51.436;6.774;2022-08-19T04:07:04;100948.25;;;17.11;84.50
13612;BME280;6877;51.436;6.774;2022-08-19T04:09:36;100958.06;;;17.09;83.85
13612;BME280;6877;51.436;6.774;2022-08-19T04:12:08;100957.38;;;17.04;83.95
13612;BME280;6877;51.436;6.774;2022-08-19T04:14:40;100966.25;;;17.03;84.11
13612;BME280;6877;51.436;6.774;2022-08-19T04:17:12;100961.75;;;17.05;84.55
13612;BME280;6877;51.436;6.774;2022-08-19T04:19:45;100955.47;;;17.08;84.78
13612;BME280;6877;51.436;6.774;2022-08-19T04:22:16;100951.13;;;17.07;85.41
13612;BME280;6877;51.436;6.774;2022-08-19T04:24:49;100956.66;;;17.01;84.72
13612;BME280;6877;51.436;6.774;2022-08-19T04:27:20;100955.94;;;16.97;85.01
13612;BME280;6877;51.436;6.774;2022-08-19T04:29:52;100951.63;;;16.95;85.01
13612;BME280;6877;51.436;6.774;2022-08-19T04:32:26;100946.59;;;16.88;84.90
13612;BME280;6877;51.436;6.774;2022-08-19T04:34:52;100944.88;;;16.87;85.17
13612;BME280;6877;51.436;6.774;2022-08-19T04:37:26;100945.78;;;16.86;85.23
13612;BME280;6877;51.436;6.774;2022-08-19T04:39:58;100947.53;;;16.87;85.59
13612;BME280;6877;51.436;6.774;2022-08-19T04:42:48;100957.16;;;16.88;85.42
13612;BME280;6877;51.436;6.774;2022-08-19T04:45:19;100959.50;;;16.96;85.86
13612;BME280;6877;51.436;6.774;2022-08-19T04:47:46;100959.38;;;16.99;85.82
13612;BME280;6877;51.436;6.774;2022-08-19T04:50:18;100965.66;;;16.97;86.03
13612;BME280;6877;51.436;6.774;2022-08-19T04:52:51;100966.50;;;16.97;85.99
13612;BME280;6877;51.436;6.774;2022-08-19T04:55:18;100977.09;;;16.97;86.29
13612;BME280;6877;51.436;6.774;2022-08-19T04:57:50;100976.22;;;16.97;86.27
13612;BME280;6877;51.436;6.774;2022-08-19T05:00:22;100978.88;;;16.97;86.61
13612;BME280;6877;51.436;6.774;2022-08-19T05:02:53;100983.34;;;16.95;86.38
13612;BME280;6877;51.436;6.774;2022-08-19T05:05:25;100995.50;;;16.99;86.41
13612;BME280;6877;51.436;6.774;2022-08-19T05:07:51;100997.13;;;17.03;86.26
13612;BME280;6877;51.436;6.774;2022-08-19T05:10:23;100998.84;;;17.04;86.47
13612;BME280;6877;51.436;6.774;2022-08-19T05:12:54;101005.84;;;17.05;86.35
13612;BME280;6877;51.436;6.774;2022-08-19T05:15:21;101002.28;;;17.06;86.16
13612;BME280;6877;51.436;6.774;2022-08-19T05:17:52;101011.13;;;17.05;86.11
13612;BME280;6877;51.436;6.774;2022-08-19T05:20:42;101010.25;;;17.04;86.19
13612;BME280;6877;51.436;6.774;2022-08-19T05:23:33;101010.34;;;17.03;86.10
13612;BME280;6877;51.436;6.774;2022-08-19T05:26:05;101025.28;;;17.04;86.16
13612;BME280;6877;51.436;6.774;2022-08-19T05:28:36;101022.56;;;17.05;85.88
13612;BME280;6877;51.436;6.774;2022-08-19T05:31:08;101019.88;;;17.07;85.97
13612;BME280;6877;51.436;6.774;2022-08-19T05:33:39;101018.06;;;17.07;85.83
13612;BME280;6877;51.436;6.774;2022-08-19T05:36:11;101019.75;;;17.10;85.83
13612;BME280;6877;51.436;6.774;2022-08-19T05:38:39;101014.38;;;17.11;85.78
13612;BME280;6877;51.436;6.774;2022-08-19T05:41:09;101018.56;;;17.17;85.54
13612;BME280;6877;51.436;6.774;2022-08-19T05:43:41;101008.66;;;17.22;85.42
13612;BME280;6877;51.436;6.774;2022-08-19T05:46:18;101009.13;;;17.32;85.14
13612;BME280;6877;51.436;6.774;2022-08-19T05:48:50;101014.88;;;17.42;84.95
13612;BME280;6877;51.436;6.774;2022-08-19T05:51:23;101013.50;;;17.53;84.55
13612;BME280;6877;51.436;6.774;2022-08-19T05:53:54;101015.53;;;17.67;84.33
13612;BME280;6877;51.436;6.774;2022-08-19T05:56:21;101034.38;;;17.81;83.79
13612;BME280;6877;51.436;6.774;2022-08-19T05:58:47;101029.50;;;17.91;83.69
13612;BME280;6877;51.436;6.774;2022-08-19T06:01:17;101028.22;;;18.00;83.47
13612;BME280;6877;51.436;6.774;2022-08-19T06:03:49;101020.81;;;18.08;83.07
13612;BME280;6877;51.436;6.774;2022-08-19T06:06:16;101022.38;;;18.12;82.78
13612;BME280;6877;51.436;6.774;2022-08-19T06:08:47;101012.50;;;18.16;82.37
13612;BME280;6877;51.436;6.774;2022-08-19T06:14:08;101020.09;;;18.23;82.01
13612;BME280;6877;51.436;6.774;2022-08-19T06:16:36;101023.41;;;18.28;81.83
13612;BME280;6877;51.436;6.774;2022-08-19T06:19:15;101021.09;;;18.40;81.53
13612;BME280;6877;51.436;6.774;2022-08-19T06:21:49;101010.88;;;18.51;81.04
13612;BME280;6877;51.436;6.774;2022-08-19T06:24:25;101007.78;;;18.60;80.69
13612;BME280;6877;51.436;6.774;2022-08-19T06:26:58;101009.91;;;18.71;80.52
13612;BME280;6877;51.436;6.774;2022-08-19T06:29:30;101013.81;;;18.83;80.25
13612;BME280;6877;51.436;6.774;2022-08-19T06:32:03;101013.19;;;18.95;79.91
13612;BME280;6877;51.436;6.774;2022-08-19T06:34:32;101006.50;;;19.05;79.60
13612;BME280;6877;51.436;6.774;2022-08-19T06:37:04;101013.69;;;19.20;79.10
13612;BME280;6877;51.436;6.774;2022-08-19T06:39:34;101009.63;;;19.31;78.90
13612;BME280;6877;51.436;6.774;2022-08-19T06:42:06;101007.53;;;19.37;78.26
13612;BME280;6877;51.436;6.774;2022-08-19T06:44:36;101016.03;;;19.44;78.12
13612;BME280;6877;51.436;6.774;2022-08-19T06:47:09;101012.09;;;19.51;77.47
13612;BME280;6877;51.436;6.774;2022-08-19T06:49:42;101010.72;;;19.61;77.16
13612;BME280;6877;51.436;6.774;2022-08-19T06:52:13;101011.56;;;19.62;77.24
13612;BME280;6877;51.436;6.774;2022-08-19T06:54:45;101023.19;;;19.59;77.09
13612;BME280;6877;51.436;6.774;2022-08-19T06:57:17;101019.00;;;19.55;77.28
13612;BME280;6877;51.436;6.774;2022-08-19T06:59:49;101021.66;;;19.55;77.17
13612;BME280;6877;51.436;6.774;2022-08-19T07:02:20;101017.66;;;19.64;77.17
13612;BME280;6877;51.436;6.774;2022-08-19T07:04:52;101027.34;;;19.82;76.68
13612;BME280;6877;51.436;6.774;2022-08-19T07:07:24;101028.16;;;20.00;76.21
13612;BME280;6877;51.436;6.774;2022-08-19T07:09:55;101035.84;;;20.22;75.23
13612;BME280;6877;51.436;6.774;2022-08-19T07:12:29;101036.72;;;20.38;74.50
13612;BME280;6877;51.436;6.774;2022-08-19T07:14:58;101034.09;;;20.54;73.83
13612;BME280;6877;51.436;6.774;2022-08-19T07:17:29;101038.38;;;20.73;73.08
13612;BME280;6877;51.436;6.774;2022-08-19T07:19:56;101031.69;;;20.81;72.76
13612;BME280;6877;51.436;6.774;2022-08-19T07:22:28;101027.66;;;20.90;72.29
13612;BME280;6877;51.436;6.774;2022-08-19T07:25:00;101031.50;;;21.00;72.07
13612;BME280;6877;51.436;6.774;2022-08-19T07:27:34;101040.50;;;21.14;71.72
13612;BME280;6877;51.436;6.774;2022-08-19T07:30:00;101044.44;;;21.22;71.17
13612;BME280;6877;51.436;6.774;2022-08-19T07:32:27;101041.28;;;21.30;70.77
13612;BME280;6877;51.436;6.774;2022-08-19T07:34:59;101048.16;;;21.34;70.34
13612;BME280;6877;51.436;6.774;2022-08-19T07:37:31;101040.44;;;21.45;69.45
13612;BME280;6877;51.436;6.774;2022-08-19T07:40:05;101044.28;;;21.70;68.88
13612;BME280;6877;51.436;6.774;2022-08-19T07:42:37;101046.09;;;21.84;67.68
13612;BME280;6877;51.436;6.774;2022-08-19T07:45:05;101048.50;;;22.03;66.90
13612;BME280;6877;51.436;6.774;2022-08-19T07:47:36;101051.38;;;22.28;66.10
13612;BME280;6877;51.436;6.774;2022-08-19T07:50:10;101051.84;;;22.49;65.01
13612;BME280;6877;51.436;6.774;2022-08-19T07:52:42;101059.19;;;22.46;64.99
13612;BME280;6877;51.436;6.774;2022-08-19T07:55:18;101067.16;;;22.60;64.62
13612;BME280;6877;51.436;6.774;2022-08-19T07:57:49;101073.13;;;22.78;63.92
13612;BME280;6877;51.436;6.774;2022-08-19T08:00:23;101061.56;;;23.46;62.29
13612;BME280;6877;51.436;6.774;2022-08-19T08:02:50;101068.38;;;24.15;59.42
13612;BME280;6877;51.436;6.774;2022-08-19T08:05:23;101076.06;;;24.82;57.10
13612;BME280;6877;51.436;6.774;2022-08-19T08:08:14;101077.09;;;25.76;54.54
13612;BME280;6877;51.436;6.774;2022-08-19T08:11:04;101078.72;;;27.55;50.28
13612;BME280;6877;51.436;6.774;2022-08-19T08:13:36;101080.56;;;29.47;45.57
13612;BME280;6877;51.436;6.774;2022-08-19T08:16:09;101082.66;;;30.94;42.09
13612;BME280;6877;51.436;6.774;2022-08-19T08:18:40;101080.59;;;30.13;42.33
13612;BME280;6877;51.436;6.774;2022-08-19T08:21:13;101083.25;;;28.98;44.55
13612;BME280;6877;51.436;6.774;2022-08-19T08:23:44;101077.38;;;26.96;48.30
13612;BME280;6877;51.436;6.774;2022-08-19T08:26:16;101080.06;;;26.85;48.90
13612;BME280;6877;51.436;6.774;2022-08-19T08:28:48;101079.00;;;26.65;48.86
13612;BME280;6877;51.436;6.774;2022-08-19T08:31:15;101090.09;;;26.04;50.18
13612;BME280;6877;51.436;6.774;2022-08-19T08:33:47;101093.88;;;26.47;50.07
13612;BME280;6877;51.436;6.774;2022-08-19T08:36:14;101090.69;;;27.62;47.03
13612;BME280;6877;51.436;6.774;2022-08-19T08:38:42;101095.13;;;27.73;46.31
13612;BME280;6877;51.436;6.774;2022-08-19T08:41:39;101095.50;;;27.47;46.81
13612;BME280;6877;51.436;6.774;2022-08-19T08:44:17;101102.81;;;27.57;46.79
13612;BME280;6877;51.436;6.774;2022-08-19T08:46:53;101098.69;;;27.94;46.05
13612;BME280;6877;51.436;6.774;2022-08-19T08:52:36;101086.91;;;30.69;38.38
13612;BME280;6877;51.436;6.774;2022-08-19T08:55:21;101089.50;;;32.30;35.61
13612;BME280;6877;51.436;6.774;2022-08-19T08:57:59;101086.44;;;34.87;31.74
13612;BME280;6877;51.436;6.774;2022-08-19T09:00:44;101092.91;;;35.17;30.22
13612;BME280;6877;51.436;6.774;2022-08-19T09:03:22;101080.63;;;34.11;31.90
13612;BME280;6877;51.436;6.774;2022-08-19T09:12:10;101085.50;;;32.76;32.58
13612;BME280;6877;51.436;6.774;2022-08-19T09:17:00;101083.31;;;30.51;36.18
13612;BME280;6877;51.436;6.774;2022-08-19T09:19:46;101081.72;;;29.73;38.01
13612;BME280;6877;51.436;6.774;2022-08-19T09:22:20;101090.53;;;29.66;38.73
13612;BME280;6877;51.436;6.774;2022-08-19T09:24:54;101078.47;;;30.82;36.89
13612;BME280;6877;51.436;6.774;2022-08-19T09:27:26;101085.28;;;32.62;34.27
13612;BME280;6877;51.436;6.774;2022-08-19T09:29:53;101086.28;;;33.44;32.12
13612;BME280;6877;51.436;6.774;2022-08-19T09:32:25;101077.97;;;33.86;31.24
13612;BME280;6877;51.436;6.774;2022-08-19T09:34:57;101085.78;;;33.24;32.27
13612;BME280;6877;51.436;6.774;2022-08-19T09:40:03;101080.59;;;35.06;29.49
13612;BME280;6877;51.436;6.774;2022-08-19T09:42:30;101087.34;;;35.10;29.27
13612;BME280;6877;51.436;6.774;2022-08-19T09:45:02;101083.75;;;33.67;30.78
13612;BME280;6877;51.436;6.774;2022-08-19T09:47:35;101078.88;;;31.23;35.25
13612;BME280;6877;51.436;6.774;2022-08-19T09:50:11;101075.44;;;30.30;37.21
13612;BME280;6877;51.436;6.774;2022-08-19T09:52:42;101071.91;;;29.72;38.62
13612;BME280;6877;51.436;6.774;2022-08-19T09:55:14;101082.44;;;29.66;39.03
13612;BME280;6877;51.436;6.774;2022-08-19T09:57:47;101076.41;;;29.91;38.29
13612;BME280;6877;51.436;6.774;2022-08-19T10:00:18;101083.13;;;29.58;39.04
13612;BME280;6877;51.436;6.774;2022-08-19T10:02:45;101081.53;;;29.85;38.77
13612;BME280;6877;51.436;6.774;2022-08-19T10:05:16;101087.31;;;31.20;35.75
13612;BME280;6877;51.436;6.774;2022-08-19T10:08:02;101079.00;;;32.61;33.26
13612;BME280;6877;51.436;6.774;2022-08-19T10:10:35;101086.72;;;34.21;30.53
13612;BME280;6877;51.436;6.774;2022-08-19T10:13:07;101082.72;;;35.34;28.73
13612;BME280;6877;51.436;6.774;2022-08-19T10:15:38;101078.97;;;36.40;27.47
13612;BME280;6877;51.436;6.774;2022-08-19T10:18:13;101084.34;;;36.04;27.09
13612;BME280;6877;51.436;6.774;2022-08-19T10:20:39;101084.09;;;36.50;26.60
13612;BME280;6877;51.436;6.774;2022-08-19T10:23:13;101074.53;;;36.54;26.80
13612;BME280;6877;51.436;6.774;2022-08-19T10:25:47;101073.41;;;36.33;26.47
13612;BME280;6877;51.436;6.774;2022-08-19T10:28:19;101064.16;;;34.60;28.72
13612;BME280;6877;51.436;6.774;2022-08-19T10:30:50;101063.66;;;32.94;31.51
13612;BME280;6877;51.436;6.774;2022-08-19T10:33:22;101063.03;;;33.41;30.97
13612;BME280;6877;51.436;6.774;2022-08-19T10:36:02;101056.53;;;32.77;31.73
13612;BME280;6877;51.436;6.774;2022-08-19T10:38:36;101067.28;;;32.52;32.42
13612;BME280;6877;51.436;6.774;2022-08-19T10:41:28;101060.66;;;33.79;30.26
13612;BME280;6877;51.436;6.774;2022-08-19T10:44:03;101049.59;;;34.84;28.09
13612;BME280;6877;51.436;6.774;2022-08-19T10:46:39;101042.69;;;34.96;28.04
13612;BME280;6877;51.436;6.774;2022-08-19T10:49:13;101052.25;;;35.15;27.84
13612;BME280;6877;51.436;6.774;2022-08-19T10:51:45;101054.59;;;35.64;26.79
13612;BME280;6877;51.436;6.774;2022-08-19T10:54:32;101063.25;;;36.93;25.27
13612;BME280;6877;51.436;6.774;2022-08-19T10:57:22;101063.91;;;37.17;24.54
13612;BME280;6877;51.436;6.774;2022-08-19T11:00:00;101054.38;;;36.70;24.98
13612;BME280;6877;51.436;6.774;2022-08-19T11:02:31;101052.88;;;34.32;28.34
13612;BME280;6877;51.436;6.774;2022-08-19T11:04:59;101049.66;;;33.73;29.14
13612;BME280;6877;51.436;6.774;2022-08-19T11:07:26;101050.09;;;32.94;30.18
13612;BME280;6877;51.436;6.774;2022-08-19T11:09:57;101051.94;;;31.49;32.90
13612;BME280;6877;51.436;6.774;2022-08-19T11:12:29;101044.41;;;30.06;35.58
13612;BME280;6877;51.436;6.774;2022-08-19T11:15:00;101049.38;;;31.11;33.72
13612;BME280;6877;51.436;6.774;2022-08-19T11:17:32;101048.16;;;30.33;35.20
13612;BME280;6877;51.436;6.774;2022-08-19T11:20:04;101040.34;;;29.92;35.81
13612;BME280;6877;51.436;6.774;2022-08-19T11:22:36;101052.59;;;31.33;33.09
13612;BME280;6877;51.436;6.774;2022-08-19T11:25:09;101046.53;;;31.31;32.88
13612;BME280;6877;51.436;6.774;2022-08-19T11:27:41;101045.38;;;30.52;33.90
13612;BME280;6877;51.436;6.774;2022-08-19T11:30:14;101046.78;;;30.84;33.37
13612;BME280;6877;51.436;6.774;2022-08-19T11:32:47;101036.50;;;31.67;32.04
13612;BME280;6877;51.436;6.774;2022-08-19T11:35:19;101042.97;;;30.49;34.19
13612;BME280;6877;51.436;6.774;2022-08-19T11:37:51;101036.41;;;30.52;34.78
13612;BME280;6877;51.436;6.774;2022-08-19T11:40:22;101039.66;;;30.28;34.77
13612;BME280;6877;51.436;6.774;2022-08-19T11:42:54;101040.59;;;29.32;35.85
13612;BME280;6877;51.436;6.774;2022-08-19T11:45:25;101045.38;;;29.00;36.69
13612;BME280;6877;51.436;6.774;2022-08-19T11:47:58;101049.38;;;28.46;37.13
13612;BME280;6877;51.436;6.774;2022-08-19T11:50:29;101039.75;;;27.82;38.29
13612;BME280;6877;51.436;6.774;2022-08-19T11:52:56;101037.63;;;27.43;39.19
13612;BME280;6877;51.436;6.774;2022-08-19T11:55:28;101028.59;;;27.65;39.52
13612;BME280;6877;51.436;6.774;2022-08-19T11:57:59;101031.91;;;28.00;38.45
13612;BME280;6877;51.436;6.774;2022-08-19T12:00:31;101023.78;;;27.69;38.13
13612;BME280;6877;51.436;6.774;2022-08-19T12:03:02;101023.19;;;27.65;38.07
13612;BME280;6877;51.436;6.774;2022-08-19T12:05:37;101024.13;;;27.97;37.69
13612;BME280;6877;51.436;6.774;2022-08-19T12:08:09;101025.97;;;28.06;37.18
13612;BME280;6877;51.436;6.774;2022-08-19T12:10:41;101028.03;;;28.23;37.04
13612;BME280;6877;51.436;6.774;2022-08-19T12:13:12;101025.19;;;28.55;36.47
13612;BME280;6877;51.436;6.774;2022-08-19T12:15:46;101023.66;;;28.72;35.78
13612;BME280;6877;51.436;6.774;2022-08-19T12:18:18;101017.66;;;28.59;36.45
13612;BME280;6877;51.436;6.774;2022-08-19T12:20:53;101019.94;;;28.44;37.28
13612;BME280;6877;51.436;6.774;2022-08-19T12:23:26;101012.88;;;28.22;37.36
13612;BME280;6877;51.436;6.774;2022-08-19T12:25:57;101005.59;;;28.03;37.31
13612;BME280;6877;51.436;6.774;2022-08-19T12:28:29;101011.38;;;28.39;37.33
13612;BME280;6877;51.436;6.774;2022-08-19T12:31:00;101005.78;;;28.71;36.49
13612;BME280;6877;51.436;6.774;2022-08-19T12:33:32;101012.28;;;28.69;36.00
13612;BME280;6877;51.436;6.774;2022-08-19T12:36:07;101011.41;;;28.49;36.92
13612;BME280;6877;51.436;6.774;2022-08-19T12:38:39;101015.44;;;28.33;36.82
13612;BME280;6877;51.436;6.774;2022-08-19T12:41:13;101009.91;;;28.25;37.34
13612;BME280;6877;51.436;6.774;2022-08-19T12:43:45;101006.25;;;27.95;37.50
13612;BME280;6877;51.436;6.774;2022-08-19T12:46:12;101003.66;;;27.42;38.60
13612;BME280;6877;51.436;6.774;2022-08-19T12:48:43;101011.47;;;27.24;39.08
13612;BME280;6877;51.436;6.774;2022-08-19T12:51:17;100997.69;;;27.39;38.30
13612;BME280;6877;51.436;6.774;2022-08-19T12:53:52;100996.69;;;27.61;37.72
13612;BME280;6877;51.436;6.774;2022-08-19T12:56:18;100995.53;;;27.75;37.12
13612;BME280;6877;51.436;6.774;2022-08-19T12:58:50;100999.06;;;27.54;37.43
13612;BME280;6877;51.436;6.774;2022-08-19T13:01:22;100998.06;;;27.76;36.73
13612;BME280;6877;51.436;6.774;2022-08-19T13:03:53;100995.94;;;28.01;36.41
13612;BME280;6877;51.436;6.774;2022-08-19T13:06:23;101002.53;;;28.27;35.67
13612;BME280;6877;51.436;6.774;2022-08-19T13:08:54;100999.16;;;28.25;35.21
13612;BME280;6877;51.436;6.774;2022-08-19T13:11:26;101000.31;;;28.32;35.42
13612;BME280;6877;51.436;6.774;2022-08-19T13:13:53;100997.09;;;28.08;36.08
13612;BME280;6877;51.436;6.774;2022-08-19T13:16:26;100996.44;;;27.64;36.97
13612;BME280;6877;51.436;6.774;2022-08-19T13:18:59;100988.09;;;27.67;37.15
13612;BME280;6877;51.436;6.774;2022-08-19T13:21:30;100984.53;;;27.78;36.94
13612;BME280;6877;51.436;6.774;2022-08-19T13:24:03;100991.09;;;27.94;37.15
13612;BME280;6877;51.436;6.774;2022-08-19T13:26:34;100989.28;;;28.05;36.75
13612;BME280;6877;51.436;6.774;2022-08-19T13:29:06;100984.91;;;28.04;36.69
13612;BME280;6877;51.436;6.774;2022-08-19T13:31:56;100978.88;;;28.21;35.83
13612;BME280;6877;51.436;6.774;2022-08-19T13:34:41;100980.47;;;28.33;35.50
13612;BME280;6877;51.436;6.774;2022-08-19T13:37:13;100974.28;;;28.42;35.44
13612;BME280;6877;51.436;6.774;2022-08-19T13:39:44;100974.50;;;28.30;35.65
13612;BME280;6877;51.436;6.774;2022-08-19T13:42:18;100964.00;;;28.17;35.65
13612;BME280;6877;51.436;6.774;2022-08-19T13:44:45;100966.56;;;27.78;36.90
13612;BME280;6877;51.436;6.774;2022-08-19T13:47:19;100957.22;;;27.82;36.99